createdAt,value
2022-09-15T00:26:27.699Z,100
2022-09-15T01:16:39.568Z,100
2022-09-15T01:26:41.619Z,100
2022-09-15T01:46:45.934Z,100
2022-09-15T01:56:47.918Z,100
2022-09-15T02:06:50.302Z,100
2022-09-15T02:26:54.280Z,100
2022-09-15T02:57:01.252Z,100
2022-09-15T03:07:03.721Z,100
2022-09-15T03:17:05.945Z,100
2022-09-15T03:27:08.174Z,100
2022-09-15T03:37:10.794Z,100
2022-09-15T03:47:13.276Z,100
2022-09-15T03:57:15.658Z,100
2022-09-15T04:07:18.176Z,100
2022-09-15T04:17:20.705Z,100
2022-09-15T04:27:22.802Z,100
2022-09-15T04:37:24.867Z,100
2022-09-15T04:47:27.400Z,100
2022-09-15T04:57:29.461Z,100
2022-09-15T05:07:31.542Z,100
2022-09-15T05:17:33.400Z,100
2022-09-15T05:27:36.000Z,100
2022-09-15T05:47:40.569Z,100
2022-09-15T06:07:44.690Z,100
2022-09-15T06:17:46.855Z,100
2022-09-15T06:27:49.502Z,100
2022-09-15T06:37:52.151Z,100
2022-09-15T06:48:07.566Z,100
2022-09-15T06:57:57.340Z,100
2022-09-15T07:18:02.063Z,100
2022-09-15T07:28:03.974Z,100
2022-09-15T07:38:05.882Z,100
2022-09-15T07:48:07.890Z,100
2022-09-15T07:58:09.918Z,100
2022-09-15T08:38:18.733Z,95
2022-09-15T08:48:21.380Z,94
2022-09-15T08:58:23.267Z,88
2022-09-15T09:08:24.989Z,85
2022-09-15T09:18:27.234Z,84
2022-09-15T09:28:29.831Z,81
2022-09-15T09:38:31.871Z,76
2022-09-15T09:48:34.216Z,75
2022-09-15T10:08:38.746Z,79
2022-09-15T10:18:40.989Z,91
2022-09-15T10:28:43.418Z,96
2022-09-15T10:38:45.995Z,97
2022-09-15T10:48:48.088Z,94
2022-09-15T10:58:50.636Z,90
2022-09-15T11:08:52.951Z,89
2022-09-15T11:18:54.656Z,84
2022-09-15T11:28:56.971Z,83
2022-09-15T11:38:59.615Z,81
2022-09-15T11:49:01.486Z,77
2022-09-15T11:59:03.567Z,73
2022-09-15T12:09:06.235Z,74
2022-09-15T12:19:08.408Z,75
2022-09-15T12:29:10.853Z,76
2022-09-15T12:39:12.770Z,75
2022-09-15T12:49:15.086Z,75
2022-09-15T12:59:17.385Z,74
2022-09-15T13:09:19.826Z,72
2022-09-15T13:29:23.880Z,71
2022-09-15T13:39:26.061Z,71
2022-09-15T13:49:28.510Z,69
2022-09-15T13:59:31.159Z,66
2022-09-15T14:09:32.983Z,61
2022-09-15T14:19:34.975Z,60
2022-09-15T14:29:37.588Z,59
2022-09-15T14:39:40.044Z,60
2022-09-15T14:49:42.218Z,62
2022-09-15T14:59:44.818Z,63
2022-09-15T15:09:46.767Z,66
2022-09-15T15:19:49.055Z,67
2022-09-15T15:29:50.913Z,64
2022-09-15T15:39:53.434Z,64
2022-09-15T15:50:12.100Z,65
2022-09-15T15:59:57.383Z,65
2022-09-15T16:20:02.374Z,66
2022-09-15T16:30:04.177Z,66
2022-09-15T16:50:08.826Z,69
2022-09-15T17:10:13.269Z,70
2022-09-15T17:20:15.794Z,71
2022-09-15T17:30:17.524Z,72
2022-09-15T17:40:20.109Z,72
2022-09-15T17:50:22.168Z,72
2022-09-15T18:00:24.286Z,71
2022-09-15T18:10:26.652Z,70
2022-09-15T18:20:28.957Z,71
2022-09-15T18:30:30.758Z,73
2022-09-15T18:40:33.279Z,74
2022-09-15T18:50:35.281Z,75
2022-09-15T19:00:37.571Z,76
2022-09-15T19:10:39.416Z,76
2022-09-15T19:20:41.857Z,77
2022-09-15T19:30:44.271Z,76
2022-09-15T19:40:46.012Z,75
2022-09-15T19:50:48.424Z,74
2022-09-15T20:00:50.715Z,76
2022-09-15T20:10:53.075Z,77
2022-09-15T20:20:55.031Z,78
2022-09-15T20:30:57.076Z,80
2022-09-15T20:40:59.387Z,80
2022-09-15T20:51:01.204Z,81
2022-09-15T21:01:03.016Z,82
2022-09-15T21:11:05.357Z,82
2022-09-15T21:13:43.735Z,82
2022-09-15T21:21:16.708Z,82
2022-09-15T21:31:19.010Z,83
2022-09-15T21:41:20.783Z,84
2022-09-15T21:51:24.836Z,85
2022-09-15T22:01:24.459Z,85
2022-09-15T22:11:26.793Z,86
2022-09-15T22:21:28.886Z,86
2022-09-15T22:31:31.577Z,87
2022-09-15T22:41:33.470Z,87
2022-09-15T22:51:36.104Z,88
2022-09-15T23:01:37.893Z,90
2022-09-15T23:11:40.289Z,91
2022-09-15T23:21:41.939Z,92
2022-09-15T23:31:44.323Z,92
2022-09-15T23:41:46.947Z,92
2022-09-15T23:51:49.468Z,91
